Terminal Aerodrome Forecast
Issued by NWS Wilmington, OH

Current Version | Previous Version | Graphics & Text | Print | Product List | Glossary On
Versions: 1 2 3 4 5 6 7 8 9 10 11 12 13 14 15 16 17 18 19 20 21 22 23 24 25 26
000
FTUS41 KILN 032300
TAFILN
TAF
KILN 032329Z 0400/0424 22008KT 1/4SM -RA FG OVC002
     FM040200 28012KT 4SM -RA BR OVC025
     FM040400 32008KT 2SM -RA BR OVC006
     FM041500 33007KT 3SM BR OVC006
     FM042000 33012KT 1 1/2SM -SN BR OVC004=

USA.gov is the U.S. government's official web portal to all federal, state and local government web resources and services.